Portada
METAR-TAF:

METAR-TAF

Aeroports :

Toliara, Madagascar

latitud: 23-23S, longitud: 043-44E, altitud: 8 m

METAR: manca

Hora: 05:05 (02:05 UTC)

Pronòstic

L'informe es va fer fa 3 hores i 5 minuts, a les 23:00 UTC
Pronòstic vàlid del 08 a les 00 UTC al 08 a les 24 UTC
Vent 5 kt del Sud-Est
Visibilitat 10 km o més
Escasses núvols a una alçada de 2000 ft
Evolucionant progressivament
l' 08 a les 08 UTC al 08 a les 11 UTC
Vent 10 kt del Oest
Evolucionant progressivament
l' 08 a les 15 UTC al 08 a les 18 UTC
Vent kt del Nord

TAF: FMST 072300Z 0800/0824 14005KT 9999 FEW020 BECMG 0808/0811 26010KT BECMG 0815/0818 00000KT

Observacions i pronòstics meteorològics de més de 4000 aeroports (METAR i TAF).

Les estacions disponibles són els punts grocs i vermells al mapa.

Posi el ratolí al punt desitjat per veure el nom de l'estació.

Feu clic per veure les observacions i els pronòstics meteorològics.

Per canviar el mapa: feu clic els botons verds amb una creu de color negre per apropar; al botó verd amb un guió per allunyar la imatge; o en les fletxes verdes per a mapes adjacents.


METAR-TAF: